Terminal Aerodrome Forecast
Issued by NWS Billings, MT

Home | Current Version | Previous Version | Graphics & Text | Print | Product List | Glossary On
Versions: 1 2 3 4 5 6 7 8 9 10 11 12 13 14 15 16 17 18 19 20 21 22 23 24 25 26 27 28 29 30 31 32
000
FTUS45 KBYZ 100537
TAFMLS
TAF
KMLS 100537Z 1006/1106 15012G21KT P6SM SKC
     FM100900 16011KT P6SM VCTS FEW090CB BKN140
     FM101300 33008KT P6SM FEW100 SCT200
     FM110400 03009KT P6SM SCT100=

USA.gov is the U.S. government's official web portal to all federal, state and local government web resources and services.